EDDG/FMO METAR and TAF weather

Enter ICAO airport designator
Station Type Date Time Source
EDDG METAR 2022/12/04 04:50 UTC NOAA

EDDG 040450Z AUTO 05005KT 010V100 7000 SCT013 OVC017 M00/M02 Q1018 TEMPO BKN012


Station Type Date Time Source
EDDG Decoded METAR 2022/12/04 04:50 UTC NOAA

Muenster / Osnabrueck, Germany (EDDG) 52-08N 007-42E 53M
Dec 03, 2022 - 11:50 PM EST / 2022.12.04 0450 UTC
Wind: from the NE (050 degrees) at 6 MPH (5 KT) (direction variable):0
Visibility: 4 mile(s):0
Sky conditions: overcast
Temperature: 32 F (0 C)
Windchill: 26 F (-3 C):1
Dew Point: 28 F (-2 C)
Relative Humidity: 86%
Pressure (altimeter): 30.06 in. Hg (1018 hPa)
ob: EDDG 040450Z AUTO 05005KT 010V100 7000 SCT013 OVC017 M00/M02 Q1018 TEMPO BKN012
cycle: 5

Station Type Date Time Source
EDDG TAF 2022/12/03 18:27 UTC NOAA

TAF EDDG 031700Z 0318/0418 05007KT 7000 OVC012
TEMPO 0321/0403 BKN020 PROB30
TEMPO 0403/0410 4000 BR BKN007
BECMG 0410/0412 BKN007
TEMPO 0412/0418 3000 BR BKN004

Example: see airport list